sensor_id;sensor_type;location;lat;lon;timestamp;P1;durP1;ratioP1;P2;durP2;ratioP2
76336;SDS011;65157;50.082;18.178;2023-08-01T00:02:11;8.00;;;4.40;;
76336;SDS011;65157;50.082;18.178;2023-08-01T00:04:38;7.50;;;3.70;;
76336;SDS011;65157;50.082;18.178;2023-08-01T00:07:04;5.30;;;4.30;;
76336;SDS011;65157;50.082;18.178;2023-08-01T00:09:30;4.40;;;3.80;;
76336;SDS011;65157;50.082;18.178;2023-08-01T00:11:55;5.20;;;4.20;;
76336;SDS011;65157;50.082;18.178;2023-08-01T00:14:21;4.90;;;4.40;;
76336;SDS011;65157;50.082;18.178;2023-08-01T00:16:47;5.00;;;4.00;;
76336;SDS011;65157;50.082;18.178;2023-08-01T00:19:13;6.60;;;3.40;;
76336;SDS011;65157;50.082;18.178;2023-08-01T00:21:41;4.30;;;3.20;;
76336;SDS011;65157;50.082;18.178;2023-08-01T00:24:08;7.00;;;4.70;;
76336;SDS011;65157;50.082;18.178;2023-08-01T00:26:34;7.30;;;5.60;;
76336;SDS011;65157;50.082;18.178;2023-08-01T00:29:00;4.40;;;3.60;;
76336;SDS011;65157;50.082;18.178;2023-08-01T00:31:27;5.40;;;3.50;;
76336;SDS011;65157;50.082;18.178;2023-08-01T00:33:52;4.70;;;3.30;;
76336;SDS011;65157;50.082;18.178;2023-08-01T00:36:19;4.70;;;4.00;;
76336;SDS011;65157;50.082;18.178;2023-08-01T00:38:44;5.90;;;3.80;;
76336;SDS011;65157;50.082;18.178;2023-08-01T00:41:10;6.70;;;4.00;;
76336;SDS011;65157;50.082;18.178;2023-08-01T00:43:38;6.30;;;3.50;;
76336;SDS011;65157;50.082;18.178;2023-08-01T00:46:04;4.80;;;3.20;;
76336;SDS011;65157;50.082;18.178;2023-08-01T00:48:32;7.50;;;5.10;;
76336;SDS011;65157;50.082;18.178;2023-08-01T00:50:59;6.50;;;3.70;;
76336;SDS011;65157;50.082;18.178;2023-08-01T00:53:26;5.40;;;3.30;;
76336;SDS011;65157;50.082;18.178;2023-08-01T00:55:52;4.80;;;3.40;;
76336;SDS011;65157;50.082;18.178;2023-08-01T00:58:20;5.90;;;3.20;;
76336;SDS011;65157;50.082;18.178;2023-08-01T01:00:46;6.20;;;3.30;;
76336;SDS011;65157;50.082;18.178;2023-08-01T01:03:12;6.30;;;3.30;;
76336;SDS011;65157;50.082;18.178;2023-08-01T01:05:40;5.70;;;3.60;;
76336;SDS011;65157;50.082;18.178;2023-08-01T01:08:23;4.30;;;3.90;;
76336;SDS011;65157;50.082;18.178;2023-08-01T01:10:49;5.80;;;3.50;;
76336;SDS011;65157;50.082;18.178;2023-08-01T01:13:15;5.30;;;3.60;;
76336;SDS011;65157;50.082;18.178;2023-08-01T01:15:41;5.50;;;5.00;;
76336;SDS011;65157;50.082;18.178;2023-08-01T01:18:07;6.00;;;3.10;;
76336;SDS011;65157;50.082;18.178;2023-08-01T01:20:34;6.60;;;4.30;;
76336;SDS011;65157;50.082;18.178;2023-08-01T01:23:00;4.90;;;3.80;;
76336;SDS011;65157;50.082;18.178;2023-08-01T01:25:32;4.40;;;3.80;;
76336;SDS011;65157;50.082;18.178;2023-08-01T01:27:59;6.20;;;3.30;;
76336;SDS011;65157;50.082;18.178;2023-08-01T01:30:29;4.90;;;4.40;;
76336;SDS011;65157;50.082;18.178;2023-08-01T01:32:57;5.30;;;4.00;;
76336;SDS011;65157;50.082;18.178;2023-08-01T01:35:23;5.00;;;3.60;;
76336;SDS011;65157;50.082;18.178;2023-08-01T01:37:49;4.70;;;3.50;;
76336;SDS011;65157;50.082;18.178;2023-08-01T01:40:15;6.50;;;5.00;;
76336;SDS011;65157;50.082;18.178;2023-08-01T01:42:41;4.70;;;4.20;;
76336;SDS011;65157;50.082;18.178;2023-08-01T01:45:09;4.60;;;3.70;;
76336;SDS011;65157;50.082;18.178;2023-08-01T01:47:36;5.90;;;4.80;;
76336;SDS011;65157;50.082;18.178;2023-08-01T01:50:01;5.40;;;4.00;;
76336;SDS011;65157;50.082;18.178;2023-08-01T01:52:27;4.80;;;4.40;;
76336;SDS011;65157;50.082;18.178;2023-08-01T01:54:53;5.70;;;4.20;;
76336;SDS011;65157;50.082;18.178;2023-08-01T01:57:19;5.70;;;3.70;;
76336;SDS011;65157;50.082;18.178;2023-08-01T01:59:45;4.80;;;4.10;;
76336;SDS011;65157;50.082;18.178;2023-08-01T02:02:11;5.60;;;4.10;;
76336;SDS011;65157;50.082;18.178;2023-08-01T02:04:37;4.40;;;3.40;;
76336;SDS011;65157;50.082;18.178;2023-08-01T02:07:05;4.80;;;3.90;;
76336;SDS011;65157;50.082;18.178;2023-08-01T02:09:31;4.20;;;3.80;;
76336;SDS011;65157;50.082;18.178;2023-08-01T02:11:57;4.90;;;4.40;;
76336;SDS011;65157;50.082;18.178;2023-08-01T02:14:23;4.10;;;3.70;;
76336;SDS011;65157;50.082;18.178;2023-08-01T02:16:48;4.70;;;3.90;;
76336;SDS011;65157;50.082;18.178;2023-08-01T02:19:14;8.00;;;4.20;;
76336;SDS011;65157;50.082;18.178;2023-08-01T02:21:40;6.80;;;5.00;;
76336;SDS011;65157;50.082;18.178;2023-08-01T02:24:06;6.80;;;3.90;;
76336;SDS011;65157;50.082;18.178;2023-08-01T02:26:32;6.90;;;6.00;;
76336;SDS011;65157;50.082;18.178;2023-08-01T02:28:58;6.30;;;3.60;;
76336;SDS011;65157;50.082;18.178;2023-08-01T02:31:24;4.50;;;3.60;;
76336;SDS011;65157;50.082;18.178;2023-08-01T02:33:51;4.50;;;3.80;;
76336;SDS011;65157;50.082;18.178;2023-08-01T02:36:17;5.00;;;3.90;;
76336;SDS011;65157;50.082;18.178;2023-08-01T02:38:43;4.30;;;3.40;;
76336;SDS011;65157;50.082;18.178;2023-08-01T02:41:09;4.70;;;4.20;;
76336;SDS011;65157;50.082;18.178;2023-08-01T02:43:36;5.20;;;3.70;;
76336;SDS011;65157;50.082;18.178;2023-08-01T02:46:02;5.40;;;4.90;;
76336;SDS011;65157;50.082;18.178;2023-08-01T02:48:28;6.50;;;3.80;;
76336;SDS011;65157;50.082;18.178;2023-08-01T02:50:54;5.30;;;4.70;;
76336;SDS011;65157;50.082;18.178;2023-08-01T02:53:20;5.50;;;4.60;;
76336;SDS011;65157;50.082;18.178;2023-08-01T02:55:46;4.20;;;3.50;;
76336;SDS011;65157;50.082;18.178;2023-08-01T02:58:12;5.80;;;4.00;;
76336;SDS011;65157;50.082;18.178;2023-08-01T03:00:38;4.90;;;3.60;;
76336;SDS011;65157;50.082;18.178;2023-08-01T03:03:04;4.60;;;3.70;;
76336;SDS011;65157;50.082;18.178;2023-08-01T03:05:30;3.70;;;3.30;;
76336;SDS011;65157;50.082;18.178;2023-08-01T03:07:56;5.70;;;3.40;;
76336;SDS011;65157;50.082;18.178;2023-08-01T03:10:25;3.60;;;3.10;;
76336;SDS011;65157;50.082;18.178;2023-08-01T03:12:51;4.10;;;3.50;;
76336;SDS011;65157;50.082;18.178;2023-08-01T03:15:16;4.30;;;3.90;;
76336;SDS011;65157;50.082;18.178;2023-08-01T03:17:42;3.40;;;3.10;;
76336;SDS011;65157;50.082;18.178;2023-08-01T03:20:08;2.60;;;2.30;;
76336;SDS011;65157;50.082;18.178;2023-08-01T03:22:35;3.70;;;2.80;;
76336;SDS011;65157;50.082;18.178;2023-08-01T03:25:00;3.10;;;2.80;;
76336;SDS011;65157;50.082;18.178;2023-08-01T03:27:26;3.70;;;2.80;;
76336;SDS011;65157;50.082;18.178;2023-08-01T03:29:52;3.80;;;2.90;;
76336;SDS011;65157;50.082;18.178;2023-08-01T03:32:18;2.50;;;2.10;;
76336;SDS011;65157;50.082;18.178;2023-08-01T03:34:44;3.90;;;3.50;;
76336;SDS011;65157;50.082;18.178;2023-08-01T03:37:10;3.20;;;2.90;;
76336;SDS011;65157;50.082;18.178;2023-08-01T03:39:36;3.70;;;2.30;;
76336;SDS011;65157;50.082;18.178;2023-08-01T03:42:02;4.60;;;3.40;;
76336;SDS011;65157;50.082;18.178;2023-08-01T03:44:28;3.70;;;3.40;;
76336;SDS011;65157;50.082;18.178;2023-08-01T03:46:54;4.70;;;3.20;;
76336;SDS011;65157;50.082;18.178;2023-08-01T03:49:20;3.60;;;2.60;;
76336;SDS011;65157;50.082;18.178;2023-08-01T03:51:45;4.90;;;2.90;;
76336;SDS011;65157;50.082;18.178;2023-08-01T03:54:11;9.20;;;7.00;;
76336;SDS011;65157;50.082;18.178;2023-08-01T03:56:37;9.70;;;7.50;;
76336;SDS011;65157;50.082;18.178;2023-08-01T03:59:03;11.30;;;9.40;;
76336;SDS011;65157;50.082;18.178;2023-08-01T04:01:29;8.70;;;5.60;;
76336;SDS011;65157;50.082;18.178;2023-08-01T04:03:55;6.40;;;5.70;;
76336;SDS011;65157;50.082;18.178;2023-08-01T04:06:21;7.10;;;5.40;;
76336;SDS011;65157;50.082;18.178;2023-08-01T04:08:47;5.40;;;3.60;;
76336;SDS011;65157;50.082;18.178;2023-08-01T04:11:13;5.40;;;3.50;;
76336;SDS011;65157;50.082;18.178;2023-08-01T04:13:39;4.40;;;3.40;;
76336;SDS011;65157;50.082;18.178;2023-08-01T04:16:05;5.20;;;4.30;;
76336;SDS011;65157;50.082;18.178;2023-08-01T04:18:30;4.40;;;3.20;;
76336;SDS011;65157;50.082;18.178;2023-08-01T04:20:56;4.40;;;4.00;;
76336;SDS011;65157;50.082;18.178;2023-08-01T04:23:22;5.10;;;3.10;;
76336;SDS011;65157;50.082;18.178;2023-08-01T04:25:48;4.70;;;3.50;;
76336;SDS011;65157;50.082;18.178;2023-08-01T04:28:15;3.70;;;3.40;;
76336;SDS011;65157;50.082;18.178;2023-08-01T04:30:41;4.50;;;3.70;;
76336;SDS011;65157;50.082;18.178;2023-08-01T04:33:07;5.40;;;5.00;;
76336;SDS011;65157;50.082;18.178;2023-08-01T04:35:34;4.30;;;3.00;;
76336;SDS011;65157;50.082;18.178;2023-08-01T04:38:00;3.90;;;3.60;;
76336;SDS011;65157;50.082;18.178;2023-08-01T04:40:26;5.30;;;4.40;;
76336;SDS011;65157;50.082;18.178;2023-08-01T04:42:52;5.60;;;4.20;;
76336;SDS011;65157;50.082;18.178;2023-08-01T04:45:19;5.50;;;5.00;;
76336;SDS011;65157;50.082;18.178;2023-08-01T04:47:46;4.20;;;3.60;;
76336;SDS011;65157;50.082;18.178;2023-08-01T04:50:12;6.20;;;5.40;;
76336;SDS011;65157;50.082;18.178;2023-08-01T04:52:38;5.00;;;3.20;;
76336;SDS011;65157;50.082;18.178;2023-08-01T04:55:04;4.90;;;4.30;;
76336;SDS011;65157;50.082;18.178;2023-08-01T04:57:30;3.30;;;3.00;;
76336;SDS011;65157;50.082;18.178;2023-08-01T04:59:56;4.40;;;3.90;;
76336;SDS011;65157;50.082;18.178;2023-08-01T05:02:22;4.00;;;3.00;;
76336;SDS011;65157;50.082;18.178;2023-08-01T05:07:15;4.20;;;3.80;;
76336;SDS011;65157;50.082;18.178;2023-08-01T05:09:41;4.80;;;3.50;;
76336;SDS011;65157;50.082;18.178;2023-08-01T05:12:08;5.30;;;4.00;;
76336;SDS011;65157;50.082;18.178;2023-08-01T05:14:34;5.60;;;3.80;;
76336;SDS011;65157;50.082;18.178;2023-08-01T05:17:00;8.10;;;6.80;;
76336;SDS011;65157;50.082;18.178;2023-08-01T05:19:26;11.30;;;10.40;;
76336;SDS011;65157;50.082;18.178;2023-08-01T05:21:52;11.70;;;9.90;;
76336;SDS011;65157;50.082;18.178;2023-08-01T05:24:18;12.30;;;10.10;;
76336;SDS011;65157;50.082;18.178;2023-08-01T05:26:44;11.20;;;6.40;;
76336;SDS011;65157;50.082;18.178;2023-08-01T05:29:09;5.40;;;3.80;;
76336;SDS011;65157;50.082;18.178;2023-08-01T05:31:35;5.80;;;3.60;;
76336;SDS011;65157;50.082;18.178;2023-08-01T05:34:01;6.50;;;4.00;;
76336;SDS011;65157;50.082;18.178;2023-08-01T05:36:27;6.90;;;5.10;;
76336;SDS011;65157;50.082;18.178;2023-08-01T05:38:53;5.00;;;4.40;;
76336;SDS011;65157;50.082;18.178;2023-08-01T05:41:19;6.40;;;4.10;;
76336;SDS011;65157;50.082;18.178;2023-08-01T05:43:47;5.80;;;4.40;;
76336;SDS011;65157;50.082;18.178;2023-08-01T05:46:14;6.50;;;5.40;;
76336;SDS011;65157;50.082;18.178;2023-08-01T05:51:07;5.80;;;4.50;;
76336;SDS011;65157;50.082;18.178;2023-08-01T05:53:34;6.80;;;5.10;;
76336;SDS011;65157;50.082;18.178;2023-08-01T05:56:00;5.80;;;4.50;;
76336;SDS011;65157;50.082;18.178;2023-08-01T05:58:26;5.50;;;4.30;;
76336;SDS011;65157;50.082;18.178;2023-08-01T06:00:51;6.00;;;4.60;;
76336;SDS011;65157;50.082;18.178;2023-08-01T06:03:17;12.20;;;6.80;;
76336;SDS011;65157;50.082;18.178;2023-08-01T06:05:43;7.30;;;4.10;;
76336;SDS011;65157;50.082;18.178;2023-08-01T06:08:12;7.90;;;5.40;;
76336;SDS011;65157;50.082;18.178;2023-08-01T06:10:38;4.60;;;2.90;;
76336;SDS011;65157;50.082;18.178;2023-08-01T06:13:04;3.10;;;2.80;;
76336;SDS011;65157;50.082;18.178;2023-08-01T06:15:30;3.40;;;3.20;;
76336;SDS011;65157;50.082;18.178;2023-08-01T06:17:56;3.90;;;3.10;;
76336;SDS011;65157;50.082;18.178;2023-08-01T06:20:22;3.20;;;3.00;;
76336;SDS011;65157;50.082;18.178;2023-08-01T06:22:48;2.80;;;2.60;;
76336;SDS011;65157;50.082;18.178;2023-08-01T06:25:14;3.30;;;3.00;;
76336;SDS011;65157;50.082;18.178;2023-08-01T06:27:41;5.60;;;5.10;;
76336;SDS011;65157;50.082;18.178;2023-08-01T06:30:07;3.90;;;3.60;;
76336;SDS011;65157;50.082;18.178;2023-08-01T06:32:34;4.60;;;4.30;;
76336;SDS011;65157;50.082;18.178;2023-08-01T06:35:00;5.40;;;5.00;;
76336;SDS011;65157;50.082;18.178;2023-08-01T06:37:27;4.70;;;4.30;;
76336;SDS011;65157;50.082;18.178;2023-08-01T06:39:54;4.70;;;3.00;;
76336;SDS011;65157;50.082;18.178;2023-08-01T06:42:21;3.20;;;2.90;;
76336;SDS011;65157;50.082;18.178;2023-08-01T06:44:47;3.40;;;3.10;;
76336;SDS011;65157;50.082;18.178;2023-08-01T06:47:12;4.80;;;3.00;;
76336;SDS011;65157;50.082;18.178;2023-08-01T06:49:38;3.00;;;2.70;;
76336;SDS011;65157;50.082;18.178;2023-08-01T06:52:04;4.00;;;3.10;;
76336;SDS011;65157;50.082;18.178;2023-08-01T06:54:31;3.50;;;3.20;;
76336;SDS011;65157;50.082;18.178;2023-08-01T06:56:57;2.90;;;2.50;;
76336;SDS011;65157;50.082;18.178;2023-08-01T06:59:23;3.30;;;3.00;;
76336;SDS011;65157;50.082;18.178;2023-08-01T07:01:49;5.30;;;4.90;;
76336;SDS011;65157;50.082;18.178;2023-08-01T07:04:16;3.90;;;3.60;;
76336;SDS011;65157;50.082;18.178;2023-08-01T07:06:44;5.80;;;5.10;;
76336;SDS011;65157;50.082;18.178;2023-08-01T07:09:10;4.70;;;3.00;;
76336;SDS011;65157;50.082;18.178;2023-08-01T07:11:36;4.00;;;3.60;;
76336;SDS011;65157;50.082;18.178;2023-08-01T07:14:02;3.00;;;2.80;;
76336;SDS011;65157;50.082;18.178;2023-08-01T07:16:27;4.70;;;3.30;;
76336;SDS011;65157;50.082;18.178;2023-08-01T07:18:59;3.70;;;2.90;;
76336;SDS011;65157;50.082;18.178;2023-08-01T07:21:26;5.20;;;4.80;;
76336;SDS011;65157;50.082;18.178;2023-08-01T07:23:52;5.30;;;4.90;;
76336;SDS011;65157;50.082;18.178;2023-08-01T07:26:19;4.10;;;3.00;;
76336;SDS011;65157;50.082;18.178;2023-08-01T07:28:45;4.00;;;3.70;;
76336;SDS011;65157;50.082;18.178;2023-08-01T07:31:11;3.40;;;3.10;;
76336;SDS011;65157;50.082;18.178;2023-08-01T07:33:37;4.30;;;3.70;;
76336;SDS011;65157;50.082;18.178;2023-08-01T07:36:03;5.00;;;3.10;;
76336;SDS011;65157;50.082;18.178;2023-08-01T07:40:55;4.80;;;4.50;;
76336;SDS011;65157;50.082;18.178;2023-08-01T07:43:21;3.10;;;2.80;;
76336;SDS011;65157;50.082;18.178;2023-08-01T07:45:47;3.90;;;3.60;;
76336;SDS011;65157;50.082;18.178;2023-08-01T07:48:13;4.50;;;3.90;;
76336;SDS011;65157;50.082;18.178;2023-08-01T07:50:39;4.50;;;4.10;;
76336;SDS011;65157;50.082;18.178;2023-08-01T07:53:05;3.60;;;3.00;;
76336;SDS011;65157;50.082;18.178;2023-08-01T07:55:33;3.20;;;2.90;;
76336;SDS011;65157;50.082;18.178;2023-08-01T07:58:03;4.10;;;3.10;;
76336;SDS011;65157;50.082;18.178;2023-08-01T08:00:30;4.20;;;3.90;;
76336;SDS011;65157;50.082;18.178;2023-08-01T08:02:57;3.60;;;3.00;;
76336;SDS011;65157;50.082;18.178;2023-08-01T08:05:23;3.50;;;3.10;;
76336;SDS011;65157;50.082;18.178;2023-08-01T08:07:48;3.00;;;2.70;;
76336;SDS011;65157;50.082;18.178;2023-08-01T08:10:14;4.50;;;4.10;;
76336;SDS011;65157;50.082;18.178;2023-08-01T08:12:40;3.60;;;3.30;;
76336;SDS011;65157;50.082;18.178;2023-08-01T08:15:06;6.60;;;3.80;;
76336;SDS011;65157;50.082;18.178;2023-08-01T08:19:59;4.30;;;4.00;;
76336;SDS011;65157;50.082;18.178;2023-08-01T08:22:25;3.90;;;3.50;;
76336;SDS011;65157;50.082;18.178;2023-08-01T08:24:52;4.30;;;3.70;;
76336;SDS011;65157;50.082;18.178;2023-08-01T08:27:18;2.80;;;2.40;;
76336;SDS011;65157;50.082;18.178;2023-08-01T08:29:44;4.30;;;4.00;;
76336;SDS011;65157;50.082;18.178;2023-08-01T08:32:10;3.80;;;3.50;;
76336;SDS011;65157;50.082;18.178;2023-08-01T08:34:36;4.10;;;3.60;;
76336;SDS011;65157;50.082;18.178;2023-08-01T08:37:03;3.40;;;3.10;;
76336;SDS011;65157;50.082;18.178;2023-08-01T08:39:29;3.40;;;3.10;;
76336;SDS011;65157;50.082;18.178;2023-08-01T08:41:55;4.90;;;4.00;;
76336;SDS011;65157;50.082;18.178;2023-08-01T08:44:21;5.00;;;2.80;;
76336;SDS011;65157;50.082;18.178;2023-08-01T08:46:50;4.70;;;3.50;;
76336;SDS011;65157;50.082;18.178;2023-08-01T08:49:18;3.80;;;3.50;;
76336;SDS011;65157;50.082;18.178;2023-08-01T08:51:45;4.40;;;4.00;;
76336;SDS011;65157;50.082;18.178;2023-08-01T08:54:13;4.30;;;4.00;;
76336;SDS011;65157;50.082;18.178;2023-08-01T08:56:41;3.40;;;3.00;;
76336;SDS011;65157;50.082;18.178;2023-08-01T08:59:07;4.50;;;3.70;;
76336;SDS011;65157;50.082;18.178;2023-08-01T09:01:33;4.00;;;3.00;;
76336;SDS011;65157;50.082;18.178;2023-08-01T09:03:59;4.00;;;3.40;;
76336;SDS011;65157;50.082;18.178;2023-08-01T09:06:29;3.90;;;3.30;;
76336;SDS011;65157;50.082;18.178;2023-08-01T09:09:02;5.00;;;4.50;;
76336;SDS011;65157;50.082;18.178;2023-08-01T09:11:38;3.30;;;3.00;;
76336;SDS011;65157;50.082;18.178;2023-08-01T09:14:11;3.50;;;3.20;;
76336;SDS011;65157;50.082;18.178;2023-08-01T09:16:40;3.30;;;2.80;;
76336;SDS011;65157;50.082;18.178;2023-08-01T09:19:07;4.50;;;4.10;;
76336;SDS011;65157;50.082;18.178;2023-08-01T09:24:10;5.30;;;4.30;;
76336;SDS011;65157;50.082;18.178;2023-08-01T09:26:39;5.60;;;4.00;;
76336;SDS011;65157;50.082;18.178;2023-08-01T09:29:06;4.40;;;4.00;;
76336;SDS011;65157;50.082;18.178;2023-08-01T09:31:33;4.80;;;3.20;;
76336;SDS011;65157;50.082;18.178;2023-08-01T09:34:01;5.70;;;5.10;;
76336;SDS011;65157;50.082;18.178;2023-08-01T09:36:29;4.30;;;3.90;;
76336;SDS011;65157;50.082;18.178;2023-08-01T09:39:00;3.60;;;3.30;;
76336;SDS011;65157;50.082;18.178;2023-08-01T09:41:30;4.60;;;4.20;;
76336;SDS011;65157;50.082;18.178;2023-08-01T09:43:57;4.90;;;4.50;;
76336;SDS011;65157;50.082;18.178;2023-08-01T09:46:24;3.60;;;3.30;;
76336;SDS011;65157;50.082;18.178;2023-08-01T09:48:52;3.20;;;2.60;;
76336;SDS011;65157;50.082;18.178;2023-08-01T09:51:18;4.10;;;3.60;;
76336;SDS011;65157;50.082;18.178;2023-08-01T09:53:51;3.70;;;3.40;;
76336;SDS011;65157;50.082;18.178;2023-08-01T09:56:22;4.50;;;3.60;;
76336;SDS011;65157;50.082;18.178;2023-08-01T09:58:50;5.20;;;4.10;;
76336;SDS011;65157;50.082;18.178;2023-08-01T10:01:19;3.70;;;3.40;;
76336;SDS011;65157;50.082;18.178;2023-08-01T10:03:47;3.10;;;2.90;;
76336;SDS011;65157;50.082;18.178;2023-08-01T10:06:17;3.30;;;3.00;;
76336;SDS011;65157;50.082;18.178;2023-08-01T10:08:46;4.30;;;3.80;;
76336;SDS011;65157;50.082;18.178;2023-08-01T10:11:17;3.10;;;2.70;;
76336;SDS011;65157;50.082;18.178;2023-08-01T10:13:44;3.40;;;3.10;;
76336;SDS011;65157;50.082;18.178;2023-08-01T10:16:12;4.00;;;3.60;;
76336;SDS011;65157;50.082;18.178;2023-08-01T10:18:38;3.70;;;3.40;;
76336;SDS011;65157;50.082;18.178;2023-08-01T10:21:06;4.60;;;4.00;;
76336;SDS011;65157;50.082;18.178;2023-08-01T10:23:35;5.90;;;4.80;;
76336;SDS011;65157;50.082;18.178;2023-08-01T10:26:04;3.80;;;3.60;;
76336;SDS011;65157;50.082;18.178;2023-08-01T10:28:36;2.50;;;2.30;;
76336;SDS011;65157;50.082;18.178;2023-08-01T10:33:43;3.80;;;3.40;;
76336;SDS011;65157;50.082;18.178;2023-08-01T10:36:23;3.20;;;2.90;;
76336;SDS011;65157;50.082;18.178;2023-08-01T10:38:52;4.80;;;4.40;;
76336;SDS011;65157;50.082;18.178;2023-08-01T10:44:09;4.00;;;3.60;;
76336;SDS011;65157;50.082;18.178;2023-08-01T10:46:49;5.10;;;3.60;;
76336;SDS011;65157;50.082;18.178;2023-08-01T10:49:21;3.70;;;3.40;;
76336;SDS011;65157;50.082;18.178;2023-08-01T10:52:00;4.00;;;3.70;;
76336;SDS011;65157;50.082;18.178;2023-08-01T10:54:27;3.00;;;2.80;;
76336;SDS011;65157;50.082;18.178;2023-08-01T10:56:54;3.00;;;2.80;;
76336;SDS011;65157;50.082;18.178;2023-08-01T10:59:21;3.80;;;3.50;;
76336;SDS011;65157;50.082;18.178;2023-08-01T11:01:49;3.80;;;2.80;;
76336;SDS011;65157;50.082;18.178;2023-08-01T11:04:23;4.70;;;4.30;;
76336;SDS011;65157;50.082;18.178;2023-08-01T11:06:50;6.10;;;4.40;;
76336;SDS011;65157;50.082;18.178;2023-08-01T11:09:21;4.40;;;3.20;;
76336;SDS011;65157;50.082;18.178;2023-08-01T11:11:52;5.00;;;4.60;;
76336;SDS011;65157;50.082;18.178;2023-08-01T11:14:25;5.20;;;4.60;;
76336;SDS011;65157;50.082;18.178;2023-08-01T11:16:53;4.30;;;3.60;;
76336;SDS011;65157;50.082;18.178;2023-08-01T11:19:28;5.40;;;4.20;;
76336;SDS011;65157;50.082;18.178;2023-08-01T11:21:56;3.90;;;3.50;;
76336;SDS011;65157;50.082;18.178;2023-08-01T11:24:24;4.10;;;3.70;;
76336;SDS011;65157;50.082;18.178;2023-08-01T11:26:52;4.30;;;3.90;;
76336;SDS011;65157;50.082;18.178;2023-08-01T11:29:19;4.50;;;3.20;;
76336;SDS011;65157;50.082;18.178;2023-08-01T11:34:18;4.40;;;4.00;;
76336;SDS011;65157;50.082;18.178;2023-08-01T11:36:44;3.40;;;3.10;;
76336;SDS011;65157;50.082;18.178;2023-08-01T11:39:10;3.50;;;3.20;;
76336;SDS011;65157;50.082;18.178;2023-08-01T11:41:39;6.00;;;4.30;;
76336;SDS011;65157;50.082;18.178;2023-08-01T11:44:05;4.30;;;3.90;;
76336;SDS011;65157;50.082;18.178;2023-08-01T11:46:32;5.60;;;5.10;;
76336;SDS011;65157;50.082;18.178;2023-08-01T11:49:00;4.30;;;3.90;;
76336;SDS011;65157;50.082;18.178;2023-08-01T11:51:27;3.90;;;3.50;;
76336;SDS011;65157;50.082;18.178;2023-08-01T11:54:03;3.90;;;3.20;;
76336;SDS011;65157;50.082;18.178;2023-08-01T11:56:30;4.20;;;3.50;;
76336;SDS011;65157;50.082;18.178;2023-08-01T11:58:56;4.80;;;3.90;;
76336;SDS011;65157;50.082;18.178;2023-08-01T12:01:22;4.10;;;3.70;;
76336;SDS011;65157;50.082;18.178;2023-08-01T12:03:49;5.20;;;4.80;;
76336;SDS011;65157;50.082;18.178;2023-08-01T12:06:22;5.00;;;4.50;;
76336;SDS011;65157;50.082;18.178;2023-08-01T12:08:51;4.90;;;4.60;;
76336;SDS011;65157;50.082;18.178;2023-08-01T12:11:22;5.90;;;5.20;;
76336;SDS011;65157;50.082;18.178;2023-08-01T12:14:11;5.00;;;4.50;;
76336;SDS011;65157;50.082;18.178;2023-08-01T12:16:38;5.90;;;5.50;;
76336;SDS011;65157;50.082;18.178;2023-08-01T12:19:08;3.60;;;3.30;;
76336;SDS011;65157;50.082;18.178;2023-08-01T12:21:35;5.20;;;4.90;;
76336;SDS011;65157;50.082;18.178;2023-08-01T12:24:01;3.70;;;3.40;;
76336;SDS011;65157;50.082;18.178;2023-08-01T12:26:27;4.40;;;4.10;;
76336;SDS011;65157;50.082;18.178;2023-08-01T12:28:53;3.60;;;3.20;;
76336;SDS011;65157;50.082;18.178;2023-08-01T12:31:20;5.60;;;3.60;;
76336;SDS011;65157;50.082;18.178;2023-08-01T12:33:47;4.30;;;3.60;;
76336;SDS011;65157;50.082;18.178;2023-08-01T12:38:42;2.80;;;2.60;;
76336;SDS011;65157;50.082;18.178;2023-08-01T12:41:08;3.40;;;3.00;;
76336;SDS011;65157;50.082;18.178;2023-08-01T12:43:34;4.20;;;3.80;;
76336;SDS011;65157;50.082;18.178;2023-08-01T12:46:00;3.00;;;2.70;;
76336;SDS011;65157;50.082;18.178;2023-08-01T12:48:27;3.00;;;2.70;;
76336;SDS011;65157;50.082;18.178;2023-08-01T12:50:54;3.20;;;3.00;;
76336;SDS011;65157;50.082;18.178;2023-08-01T12:53:21;2.90;;;2.70;;
76336;SDS011;65157;50.082;18.178;2023-08-01T12:55:48;3.70;;;2.70;;
76336;SDS011;65157;50.082;18.178;2023-08-01T12:58:16;3.50;;;3.30;;
76336;SDS011;65157;50.082;18.178;2023-08-01T13:00:43;4.40;;;3.00;;
76336;SDS011;65157;50.082;18.178;2023-08-01T13:03:10;3.20;;;2.70;;
76336;SDS011;65157;50.082;18.178;2023-08-01T13:05:37;3.60;;;3.30;;
76336;SDS011;65157;50.082;18.178;2023-08-01T13:08:04;2.90;;;2.70;;
76336;SDS011;65157;50.082;18.178;2023-08-01T13:12:57;2.20;;;2.10;;
76336;SDS011;65157;50.082;18.178;2023-08-01T13:15:23;2.60;;;2.40;;
76336;SDS011;65157;50.082;18.178;2023-08-01T13:17:49;3.70;;;2.30;;
76336;SDS011;65157;50.082;18.178;2023-08-01T13:20:15;4.10;;;3.80;;
76336;SDS011;65157;50.082;18.178;2023-08-01T13:22:45;3.10;;;2.90;;
76336;SDS011;65157;50.082;18.178;2023-08-01T13:25:13;3.70;;;3.40;;
76336;SDS011;65157;50.082;18.178;2023-08-01T13:27:39;3.60;;;3.20;;
76336;SDS011;65157;50.082;18.178;2023-08-01T13:30:05;2.90;;;2.70;;
76336;SDS011;65157;50.082;18.178;2023-08-01T13:32:32;4.00;;;3.60;;
76336;SDS011;65157;50.082;18.178;2023-08-01T13:34:58;2.60;;;2.40;;
76336;SDS011;65157;50.082;18.178;2023-08-01T13:37:24;3.20;;;2.90;;
76336;SDS011;65157;50.082;18.178;2023-08-01T13:42:16;2.40;;;2.30;;
76336;SDS011;65157;50.082;18.178;2023-08-01T13:44:42;3.40;;;3.20;;
76336;SDS011;65157;50.082;18.178;2023-08-01T13:47:08;2.80;;;2.60;;
76336;SDS011;65157;50.082;18.178;2023-08-01T13:49:34;3.30;;;3.00;;
76336;SDS011;65157;50.082;18.178;2023-08-01T13:52:00;3.80;;;3.60;;
76336;SDS011;65157;50.082;18.178;2023-08-01T13:54:26;4.10;;;3.70;;
76336;SDS011;65157;50.082;18.178;2023-08-01T13:56:52;4.40;;;4.10;;
76336;SDS011;65157;50.082;18.178;2023-08-01T13:59:18;3.10;;;2.90;;
76336;SDS011;65157;50.082;18.178;2023-08-01T14:01:46;3.00;;;2.80;;
76336;SDS011;65157;50.082;18.178;2023-08-01T14:04:12;3.30;;;2.80;;
76336;SDS011;65157;50.082;18.178;2023-08-01T14:06:39;3.70;;;3.40;;
76336;SDS011;65157;50.082;18.178;2023-08-01T14:09:05;3.80;;;3.60;;
76336;SDS011;65157;50.082;18.178;2023-08-01T14:11:34;3.70;;;3.30;;
76336;SDS011;65157;50.082;18.178;2023-08-01T14:14:00;4.30;;;3.40;;
76336;SDS011;65157;50.082;18.178;2023-08-01T14:16:26;3.40;;;3.10;;
76336;SDS011;65157;50.082;18.178;2023-08-01T14:18:53;3.80;;;3.40;;
76336;SDS011;65157;50.082;18.178;2023-08-01T14:21:19;3.60;;;3.40;;
76336;SDS011;65157;50.082;18.178;2023-08-01T14:23:45;3.70;;;3.40;;
76336;SDS011;65157;50.082;18.178;2023-08-01T14:26:11;2.90;;;2.60;;
76336;SDS011;65157;50.082;18.178;2023-08-01T14:28:37;4.40;;;3.80;;
76336;SDS011;65157;50.082;18.178;2023-08-01T14:31:03;3.60;;;3.30;;
76336;SDS011;65157;50.082;18.178;2023-08-01T14:35:56;3.30;;;3.00;;
76336;SDS011;65157;50.082;18.178;2023-08-01T14:38:22;4.00;;;3.70;;
76336;SDS011;65157;50.082;18.178;2023-08-01T14:40:48;6.20;;;3.70;;
76336;SDS011;65157;50.082;18.178;2023-08-01T14:43:14;3.30;;;2.90;;
76336;SDS011;65157;50.082;18.178;2023-08-01T14:45:41;2.40;;;2.20;;
76336;SDS011;65157;50.082;18.178;2023-08-01T14:48:07;4.10;;;3.80;;
76336;SDS011;65157;50.082;18.178;2023-08-01T14:50:34;5.10;;;3.60;;
76336;SDS011;65157;50.082;18.178;2023-08-01T14:53:01;4.60;;;3.70;;
76336;SDS011;65157;50.082;18.178;2023-08-01T14:55:28;4.10;;;3.80;;
76336;SDS011;65157;50.082;18.178;2023-08-01T14:57:56;3.40;;;3.10;;
76336;SDS011;65157;50.082;18.178;2023-08-01T15:00:22;3.60;;;3.30;;
76336;SDS011;65157;50.082;18.178;2023-08-01T15:02:48;5.10;;;4.00;;